sensor_id;sensor_type;location;lat;lon;timestamp;temperature;humidity
51841;DHT22;37888;53.246;6.658;2023-08-06T00:00:07;13.20;99.90
51841;DHT22;37888;53.246;6.658;2023-08-06T00:02:39;13.60;99.90
51841;DHT22;37888;53.246;6.658;2023-08-06T00:05:23;13.50;99.90
51841;DHT22;37888;53.246;6.658;2023-08-06T00:07:51;13.50;99.90
51841;DHT22;37888;53.246;6.658;2023-08-06T00:10:23;13.60;99.90
51841;DHT22;37888;53.246;6.658;2023-08-06T00:12:51;13.50;99.90
51841;DHT22;37888;53.246;6.658;2023-08-06T00:15:17;13.50;99.90
51841;DHT22;37888;53.246;6.658;2023-08-06T00:17:55;13.50;99.90
51841;DHT22;37888;53.246;6.658;2023-08-06T00:20:44;13.50;99.90
51841;DHT22;37888;53.246;6.658;2023-08-06T00:23:38;13.50;99.90
51841;DHT22;37888;53.246;6.658;2023-08-06T00:26:07;13.50;99.90
51841;DHT22;37888;53.246;6.658;2023-08-06T00:32:00;13.60;99.90
51841;DHT22;37888;53.246;6.658;2023-08-06T00:35:15;13.40;99.90
51841;DHT22;37888;53.246;6.658;2023-08-06T00:37:59;13.20;99.90
51841;DHT22;37888;53.246;6.658;2023-08-06T00:40:30;13.50;99.90
51841;DHT22;37888;53.246;6.658;2023-08-06T00:43:04;13.50;99.90
51841;DHT22;37888;53.246;6.658;2023-08-06T00:45:34;13.40;99.90
51841;DHT22;37888;53.246;6.658;2023-08-06T00:48:07;13.40;99.90
51841;DHT22;37888;53.246;6.658;2023-08-06T00:50:57;13.30;99.90
51841;DHT22;37888;53.246;6.658;2023-08-06T00:53:39;13.40;99.90
51841;DHT22;37888;53.246;6.658;2023-08-06T00:56:44;13.40;99.90
51841;DHT22;37888;53.246;6.658;2023-08-06T00:59:19;13.00;99.90
51841;DHT22;37888;53.246;6.658;2023-08-06T01:02:04;13.30;99.90
51841;DHT22;37888;53.246;6.658;2023-08-06T01:05:11;13.40;99.90
51841;DHT22;37888;53.246;6.658;2023-08-06T01:17:21;13.40;99.90
51841;DHT22;37888;53.246;6.658;2023-08-06T01:20:06;13.40;99.90
51841;DHT22;37888;53.246;6.658;2023-08-06T01:22:51;13.30;99.90
51841;DHT22;37888;53.246;6.658;2023-08-06T01:25:33;13.40;99.90
51841;DHT22;37888;53.246;6.658;2023-08-06T01:28:21;13.50;99.90
51841;DHT22;37888;53.246;6.658;2023-08-06T01:31:26;13.40;99.90
51841;DHT22;37888;53.246;6.658;2023-08-06T01:34:01;13.50;99.90
51841;DHT22;37888;53.246;6.658;2023-08-06T01:36:34;13.60;99.90
51841;DHT22;37888;53.246;6.658;2023-08-06T01:41:50;13.50;99.90
51841;DHT22;37888;53.246;6.658;2023-08-06T01:44:16;13.40;99.90
51841;DHT22;37888;53.246;6.658;2023-08-06T01:47:05;13.10;99.90
51841;DHT22;37888;53.246;6.658;2023-08-06T01:49:33;13.40;99.90
51841;DHT22;37888;53.246;6.658;2023-08-06T01:52:02;13.40;99.90
51841;DHT22;37888;53.246;6.658;2023-08-06T01:54:39;13.60;99.90
51841;DHT22;37888;53.246;6.658;2023-08-06T01:57:19;13.60;99.90
51841;DHT22;37888;53.246;6.658;2023-08-06T02:00:10;13.60;99.90
51841;DHT22;37888;53.246;6.658;2023-08-06T02:02:50;13.40;99.90
51841;DHT22;37888;53.246;6.658;2023-08-06T02:05:37;13.60;99.90
51841;DHT22;37888;53.246;6.658;2023-08-06T02:08:03;13.40;99.90
51841;DHT22;37888;53.246;6.658;2023-08-06T02:10:35;13.40;99.90
51841;DHT22;37888;53.246;6.658;2023-08-06T02:13:12;13.40;99.90
51841;DHT22;37888;53.246;6.658;2023-08-06T02:16:10;13.80;99.90
51841;DHT22;37888;53.246;6.658;2023-08-06T02:19:02;13.40;99.90
51841;DHT22;37888;53.246;6.658;2023-08-06T02:21:40;13.50;99.90
51841;DHT22;37888;53.246;6.658;2023-08-06T02:24:11;13.50;99.90
51841;DHT22;37888;53.246;6.658;2023-08-06T02:26:55;13.80;99.90
51841;DHT22;37888;53.246;6.658;2023-08-06T02:29:42;13.60;99.90
51841;DHT22;37888;53.246;6.658;2023-08-06T02:32:17;13.50;99.90
51841;DHT22;37888;53.246;6.658;2023-08-06T02:35:02;13.50;99.90
51841;DHT22;37888;53.246;6.658;2023-08-06T02:37:39;13.70;99.90
51841;DHT22;37888;53.246;6.658;2023-08-06T02:40:13;14.10;99.90
51841;DHT22;37888;53.246;6.658;2023-08-06T02:42:55;13.70;99.90
51841;DHT22;37888;53.246;6.658;2023-08-06T02:45:29;13.30;99.90
51841;DHT22;37888;53.246;6.658;2023-08-06T02:48:33;13.50;99.90
51841;DHT22;37888;53.246;6.658;2023-08-06T02:51:48;13.20;99.90
51841;DHT22;37888;53.246;6.658;2023-08-06T02:54:48;13.30;99.90
51841;DHT22;37888;53.246;6.658;2023-08-06T02:57:23;13.60;99.90
51841;DHT22;37888;53.246;6.658;2023-08-06T02:59:58;13.60;99.90
51841;DHT22;37888;53.246;6.658;2023-08-06T03:02:44;14.00;99.90
51841;DHT22;37888;53.246;6.658;2023-08-06T03:05:19;13.60;99.90
51841;DHT22;37888;53.246;6.658;2023-08-06T03:07:48;13.60;99.90
51841;DHT22;37888;53.246;6.658;2023-08-06T03:10:42;14.20;99.90
51841;DHT22;37888;53.246;6.658;2023-08-06T03:13:22;13.10;99.90
51841;DHT22;37888;53.246;6.658;2023-08-06T03:16:15;13.80;99.90
51841;DHT22;37888;53.246;6.658;2023-08-06T03:18:52;13.70;99.90
51841;DHT22;37888;53.246;6.658;2023-08-06T03:21:23;13.70;99.90
51841;DHT22;37888;53.246;6.658;2023-08-06T03:24:02;13.60;99.90
51841;DHT22;37888;53.246;6.658;2023-08-06T03:26:47;13.80;99.90
51841;DHT22;37888;53.246;6.658;2023-08-06T03:29:32;13.80;99.90
51841;DHT22;37888;53.246;6.658;2023-08-06T03:32:21;13.60;99.90
51841;DHT22;37888;53.246;6.658;2023-08-06T03:37:44;13.70;99.90
51841;DHT22;37888;53.246;6.658;2023-08-06T03:40:46;13.80;99.90
51841;DHT22;37888;53.246;6.658;2023-08-06T03:43:30;14.20;99.90
51841;DHT22;37888;53.246;6.658;2023-08-06T03:45:58;14.20;99.90
51841;DHT22;37888;53.246;6.658;2023-08-06T03:48:36;13.40;99.90
51841;DHT22;37888;53.246;6.658;2023-08-06T03:51:08;13.70;99.90
51841;DHT22;37888;53.246;6.658;2023-08-06T03:53:36;13.70;99.90
51841;DHT22;37888;53.246;6.658;2023-08-06T03:56:08;13.70;99.90
51841;DHT22;37888;53.246;6.658;2023-08-06T03:58:52;13.80;99.90
51841;DHT22;37888;53.246;6.658;2023-08-06T04:01:29;13.80;99.90
51841;DHT22;37888;53.246;6.658;2023-08-06T04:04:12;13.80;99.90
51841;DHT22;37888;53.246;6.658;2023-08-06T04:06:46;13.60;99.90
51841;DHT22;37888;53.246;6.658;2023-08-06T04:09:17;13.70;99.90
51841;DHT22;37888;53.246;6.658;2023-08-06T04:14:45;13.50;99.90
51841;DHT22;37888;53.246;6.658;2023-08-06T04:17:40;14.50;99.90
51841;DHT22;37888;53.246;6.658;2023-08-06T04:23:24;13.70;99.90
51841;DHT22;37888;53.246;6.658;2023-08-06T04:25:56;13.80;99.90
51841;DHT22;37888;53.246;6.658;2023-08-06T04:34:52;13.80;99.90
51841;DHT22;37888;53.246;6.658;2023-08-06T04:37:24;13.80;99.90
51841;DHT22;37888;53.246;6.658;2023-08-06T04:42:33;13.80;99.90
51841;DHT22;37888;53.246;6.658;2023-08-06T04:45:16;13.80;99.90
51841;DHT22;37888;53.246;6.658;2023-08-06T04:47:49;13.90;99.90
51841;DHT22;37888;53.246;6.658;2023-08-06T04:50:21;13.90;99.90
51841;DHT22;37888;53.246;6.658;2023-08-06T04:52:52;13.80;99.90
51841;DHT22;37888;53.246;6.658;2023-08-06T04:55:29;14.00;99.90
51841;DHT22;37888;53.246;6.658;2023-08-06T04:58:53;13.80;99.90
51841;DHT22;37888;53.246;6.658;2023-08-06T05:01:24;13.60;99.90
51841;DHT22;37888;53.246;6.658;2023-08-06T05:08:19;13.90;99.90
51841;DHT22;37888;53.246;6.658;2023-08-06T05:10:59;13.50;99.90
51841;DHT22;37888;53.246;6.658;2023-08-06T05:16:40;13.80;99.90
51841;DHT22;37888;53.246;6.658;2023-08-06T05:22:35;13.90;99.90
51841;DHT22;37888;53.246;6.658;2023-08-06T05:25:07;13.90;99.90
51841;DHT22;37888;53.246;6.658;2023-08-06T05:27:41;14.00;99.90
51841;DHT22;37888;53.246;6.658;2023-08-06T05:30:13;14.10;99.90
51841;DHT22;37888;53.246;6.658;2023-08-06T05:32:50;14.20;99.90
51841;DHT22;37888;53.246;6.658;2023-08-06T05:35:34;14.20;99.90
51841;DHT22;37888;53.246;6.658;2023-08-06T05:38:02;14.30;99.90
51841;DHT22;37888;53.246;6.658;2023-08-06T05:40:29;14.80;99.90
51841;DHT22;37888;53.246;6.658;2023-08-06T05:43:00;14.80;99.90
51841;DHT22;37888;53.246;6.658;2023-08-06T05:45:32;15.40;99.90
51841;DHT22;37888;53.246;6.658;2023-08-06T05:48:26;16.00;99.90
51841;DHT22;37888;53.246;6.658;2023-08-06T05:51:00;17.30;99.90
51841;DHT22;37888;53.246;6.658;2023-08-06T05:53:40;18.50;99.90
51841;DHT22;37888;53.246;6.658;2023-08-06T05:56:08;19.30;99.90
51841;DHT22;37888;53.246;6.658;2023-08-06T06:01:38;19.50;99.90
51841;DHT22;37888;53.246;6.658;2023-08-06T06:04:28;18.70;99.90
51841;DHT22;37888;53.246;6.658;2023-08-06T06:24:48;15.90;99.90
51841;DHT22;37888;53.246;6.658;2023-08-06T06:31:29;15.70;99.90
51841;DHT22;37888;53.246;6.658;2023-08-06T06:33:55;15.90;99.90
51841;DHT22;37888;53.246;6.658;2023-08-06T06:36:21;16.00;99.90
51841;DHT22;37888;53.246;6.658;2023-08-06T06:38:47;16.10;99.90
51841;DHT22;37888;53.246;6.658;2023-08-06T06:41:14;16.10;99.90
51841;DHT22;37888;53.246;6.658;2023-08-06T06:43:43;16.10;99.90
51841;DHT22;37888;53.246;6.658;2023-08-06T06:46:09;16.00;99.90
51841;DHT22;37888;53.246;6.658;2023-08-06T06:48:35;16.00;99.90
51841;DHT22;37888;53.246;6.658;2023-08-06T06:51:00;16.00;99.90
51841;DHT22;37888;53.246;6.658;2023-08-06T06:53:26;16.00;99.90
51841;DHT22;37888;53.246;6.658;2023-08-06T06:56:04;16.00;99.90
51841;DHT22;37888;53.246;6.658;2023-08-06T06:58:31;16.10;99.90
51841;DHT22;37888;53.246;6.658;2023-08-06T07:00:57;16.30;99.90
51841;DHT22;37888;53.246;6.658;2023-08-06T07:03:22;16.40;99.90
51841;DHT22;37888;53.246;6.658;2023-08-06T07:05:49;16.70;99.90
51841;DHT22;37888;53.246;6.658;2023-08-06T07:08:15;17.00;99.90
51841;DHT22;37888;53.246;6.658;2023-08-06T07:10:41;17.20;99.90
51841;DHT22;37888;53.246;6.658;2023-08-06T07:13:08;17.50;99.90
51841;DHT22;37888;53.246;6.658;2023-08-06T07:15:34;17.70;99.90
51841;DHT22;37888;53.246;6.658;2023-08-06T07:17:59;17.70;99.90
51841;DHT22;37888;53.246;6.658;2023-08-06T07:20:25;17.70;99.90
51841;DHT22;37888;53.246;6.658;2023-08-06T07:22:51;17.90;99.90
51841;DHT22;37888;53.246;6.658;2023-08-06T07:25:17;18.00;99.90
51841;DHT22;37888;53.246;6.658;2023-08-06T07:27:43;18.10;99.90
51841;DHT22;37888;53.246;6.658;2023-08-06T07:30:09;18.20;99.90
51841;DHT22;37888;53.246;6.658;2023-08-06T07:32:35;18.30;99.90
51841;DHT22;37888;53.246;6.658;2023-08-06T07:35:01;18.50;99.90
51841;DHT22;37888;53.246;6.658;2023-08-06T07:37:29;18.60;99.90
51841;DHT22;37888;53.246;6.658;2023-08-06T07:39:56;18.80;99.90
51841;DHT22;37888;53.246;6.658;2023-08-06T07:42:22;19.00;99.90
51841;DHT22;37888;53.246;6.658;2023-08-06T07:44:55;19.00;99.90
51841;DHT22;37888;53.246;6.658;2023-08-06T07:47:22;19.00;99.90
51841;DHT22;37888;53.246;6.658;2023-08-06T07:49:50;19.00;99.90
51841;DHT22;37888;53.246;6.658;2023-08-06T07:54:42;19.00;99.90
51841;DHT22;37888;53.246;6.658;2023-08-06T07:57:08;19.00;99.90
51841;DHT22;37888;53.246;6.658;2023-08-06T07:59:33;19.10;99.90
51841;DHT22;37888;53.246;6.658;2023-08-06T08:02:00;19.50;99.90
51841;DHT22;37888;53.246;6.658;2023-08-06T08:04:26;19.90;99.90
51841;DHT22;37888;53.246;6.658;2023-08-06T08:06:51;20.30;99.90
51841;DHT22;37888;53.246;6.658;2023-08-06T08:09:17;20.50;99.90
51841;DHT22;37888;53.246;6.658;2023-08-06T08:11:43;20.70;99.90
51841;DHT22;37888;53.246;6.658;2023-08-06T08:14:09;21.10;99.90
51841;DHT22;37888;53.246;6.658;2023-08-06T08:16:38;21.30;99.90
51841;DHT22;37888;53.246;6.658;2023-08-06T08:19:03;21.50;99.90
51841;DHT22;37888;53.246;6.658;2023-08-06T08:21:29;21.70;99.90
51841;DHT22;37888;53.246;6.658;2023-08-06T08:23:55;22.00;99.90
51841;DHT22;37888;53.246;6.658;2023-08-06T08:26:21;22.50;99.90
51841;DHT22;37888;53.246;6.658;2023-08-06T08:28:46;22.70;99.90
51841;DHT22;37888;53.246;6.658;2023-08-06T08:31:12;22.70;99.90
51841;DHT22;37888;53.246;6.658;2023-08-06T08:33:38;22.80;99.90
51841;DHT22;37888;53.246;6.658;2023-08-06T08:36:04;22.80;99.90
51841;DHT22;37888;53.246;6.658;2023-08-06T08:38:30;22.70;99.90
51841;DHT22;37888;53.246;6.658;2023-08-06T08:40:56;22.80;99.90
51841;DHT22;37888;53.246;6.658;2023-08-06T08:43:22;22.70;99.90
51841;DHT22;37888;53.246;6.658;2023-08-06T08:45:51;22.40;99.90
51841;DHT22;37888;53.246;6.658;2023-08-06T08:48:18;22.10;99.90
51841;DHT22;37888;53.246;6.658;2023-08-06T08:50:46;22.10;99.90
51841;DHT22;37888;53.246;6.658;2023-08-06T08:53:17;21.90;99.90
51841;DHT22;37888;53.246;6.658;2023-08-06T08:55:49;22.00;99.90
51841;DHT22;37888;53.246;6.658;2023-08-06T08:58:15;22.00;99.90
51841;DHT22;37888;53.246;6.658;2023-08-06T09:00:45;22.30;99.90
51841;DHT22;37888;53.246;6.658;2023-08-06T09:03:12;22.40;99.90
51841;DHT22;37888;53.246;6.658;2023-08-06T09:05:44;22.50;99.90
51841;DHT22;37888;53.246;6.658;2023-08-06T09:08:12;22.30;99.90
51841;DHT22;37888;53.246;6.658;2023-08-06T09:10:41;22.30;99.90
51841;DHT22;37888;53.246;6.658;2023-08-06T09:13:08;22.10;99.90
51841;DHT22;37888;53.246;6.658;2023-08-06T09:15:34;22.00;99.90
51841;DHT22;37888;53.246;6.658;2023-08-06T09:18:00;21.90;99.90
51841;DHT22;37888;53.246;6.658;2023-08-06T09:20:25;21.70;99.90
51841;DHT22;37888;53.246;6.658;2023-08-06T09:22:55;21.50;99.90
51841;DHT22;37888;53.246;6.658;2023-08-06T09:25:25;21.40;99.90
51841;DHT22;37888;53.246;6.658;2023-08-06T09:28:02;21.40;99.90
51841;DHT22;37888;53.246;6.658;2023-08-06T09:30:36;21.30;99.90
51841;DHT22;37888;53.246;6.658;2023-08-06T09:33:02;21.40;99.90
51841;DHT22;37888;53.246;6.658;2023-08-06T09:35:29;21.40;99.90
51841;DHT22;37888;53.246;6.658;2023-08-06T09:38:09;21.30;99.90
51841;DHT22;37888;53.246;6.658;2023-08-06T09:40:36;21.30;99.90
51841;DHT22;37888;53.246;6.658;2023-08-06T09:43:02;21.20;99.90
51841;DHT22;37888;53.246;6.658;2023-08-06T09:45:34;21.10;99.90
51841;DHT22;37888;53.246;6.658;2023-08-06T09:48:03;21.00;99.90
51841;DHT22;37888;53.246;6.658;2023-08-06T09:50:35;21.00;99.90
51841;DHT22;37888;53.246;6.658;2023-08-06T09:53:06;21.00;99.90
51841;DHT22;37888;53.246;6.658;2023-08-06T09:55:33;20.90;99.90
51841;DHT22;37888;53.246;6.658;2023-08-06T09:57:59;20.90;99.90
51841;DHT22;37888;53.246;6.658;2023-08-06T10:00:25;20.90;99.90
51841;DHT22;37888;53.246;6.658;2023-08-06T10:02:53;21.00;99.90
51841;DHT22;37888;53.246;6.658;2023-08-06T10:05:24;20.90;99.90
51841;DHT22;37888;53.246;6.658;2023-08-06T10:07:51;20.90;99.90
51841;DHT22;37888;53.246;6.658;2023-08-06T10:10:17;20.90;99.90
51841;DHT22;37888;53.246;6.658;2023-08-06T10:12:54;20.90;99.90
51841;DHT22;37888;53.246;6.658;2023-08-06T10:15:27;20.90;99.90
51841;DHT22;37888;53.246;6.658;2023-08-06T10:17:56;21.00;99.90
51841;DHT22;37888;53.246;6.658;2023-08-06T10:20:23;21.10;99.90
51841;DHT22;37888;53.246;6.658;2023-08-06T10:23:03;21.10;99.90
51841;DHT22;37888;53.246;6.658;2023-08-06T10:25:34;21.20;99.90
51841;DHT22;37888;53.246;6.658;2023-08-06T10:28:00;21.30;99.90
51841;DHT22;37888;53.246;6.658;2023-08-06T10:30:28;21.20;99.90
51841;DHT22;37888;53.246;6.658;2023-08-06T10:33:04;21.20;99.90
51841;DHT22;37888;53.246;6.658;2023-08-06T10:38:02;21.30;99.90
51841;DHT22;37888;53.246;6.658;2023-08-06T10:40:28;21.30;99.90
51841;DHT22;37888;53.246;6.658;2023-08-06T10:42:59;21.40;99.90
51841;DHT22;37888;53.246;6.658;2023-08-06T10:45:25;21.40;99.90
51841;DHT22;37888;53.246;6.658;2023-08-06T10:47:54;21.40;99.90
51841;DHT22;37888;53.246;6.658;2023-08-06T10:50:22;21.50;99.90
51841;DHT22;37888;53.246;6.658;2023-08-06T10:52:47;21.50;99.90
51841;DHT22;37888;53.246;6.658;2023-08-06T10:55:14;21.50;99.90
51841;DHT22;37888;53.246;6.658;2023-08-06T10:57:47;21.50;99.90
51841;DHT22;37888;53.246;6.658;2023-08-06T11:00:13;21.50;99.90
51841;DHT22;37888;53.246;6.658;2023-08-06T11:02:39;21.50;99.90
51841;DHT22;37888;53.246;6.658;2023-08-06T11:05:09;21.60;99.90
51841;DHT22;37888;53.246;6.658;2023-08-06T11:07:35;21.50;99.90
51841;DHT22;37888;53.246;6.658;2023-08-06T11:10:08;21.40;99.90
51841;DHT22;37888;53.246;6.658;2023-08-06T11:12:35;21.30;99.90
51841;DHT22;37888;53.246;6.658;2023-08-06T11:15:01;21.00;99.90
51841;DHT22;37888;53.246;6.658;2023-08-06T11:17:28;21.10;99.90
51841;DHT22;37888;53.246;6.658;2023-08-06T11:19:54;21.00;99.90
51841;DHT22;37888;53.246;6.658;2023-08-06T11:22:21;21.00;99.90
51841;DHT22;37888;53.246;6.658;2023-08-06T11:24:50;20.90;99.90
51841;DHT22;37888;53.246;6.658;2023-08-06T11:27:17;20.90;99.90
51841;DHT22;37888;53.246;6.658;2023-08-06T11:29:43;20.80;99.90
51841;DHT22;37888;53.246;6.658;2023-08-06T11:32:09;20.90;99.90
51841;DHT22;37888;53.246;6.658;2023-08-06T11:34:36;20.90;99.90
51841;DHT22;37888;53.246;6.658;2023-08-06T11:37:03;21.00;99.90
51841;DHT22;37888;53.246;6.658;2023-08-06T11:39:36;21.10;99.90
51841;DHT22;37888;53.246;6.658;2023-08-06T11:42:06;21.00;99.90
51841;DHT22;37888;53.246;6.658;2023-08-06T11:44:36;20.90;99.90
51841;DHT22;37888;53.246;6.658;2023-08-06T11:47:05;20.80;99.90
51841;DHT22;37888;53.246;6.658;2023-08-06T11:52:12;20.60;99.90
51841;DHT22;37888;53.246;6.658;2023-08-06T11:54:38;20.60;99.90
51841;DHT22;37888;53.246;6.658;2023-08-06T11:57:07;20.60;99.90
51841;DHT22;37888;53.246;6.658;2023-08-06T11:59:33;20.50;99.90
51841;DHT22;37888;53.246;6.658;2023-08-06T12:02:08;20.50;99.90
51841;DHT22;37888;53.246;6.658;2023-08-06T12:05:01;20.50;99.90
51841;DHT22;37888;53.246;6.658;2023-08-06T12:07:32;20.40;99.90
51841;DHT22;37888;53.246;6.658;2023-08-06T12:09:58;20.40;99.90
51841;DHT22;37888;53.246;6.658;2023-08-06T12:12:25;20.40;99.90
51841;DHT22;37888;53.246;6.658;2023-08-06T12:14:50;20.40;99.90
51841;DHT22;37888;53.246;6.658;2023-08-06T12:17:16;20.40;99.90
51841;DHT22;37888;53.246;6.658;2023-08-06T12:19:44;20.50;99.90
51841;DHT22;37888;53.246;6.658;2023-08-06T12:22:11;20.60;99.90
51841;DHT22;37888;53.246;6.658;2023-08-06T12:24:39;20.60;99.90
51841;DHT22;37888;53.246;6.658;2023-08-06T12:27:05;20.40;99.90
51841;DHT22;37888;53.246;6.658;2023-08-06T12:29:31;20.50;99.90
51841;DHT22;37888;53.246;6.658;2023-08-06T12:31:57;20.40;99.90
51841;DHT22;37888;53.246;6.658;2023-08-06T12:34:23;20.40;99.90
51841;DHT22;37888;53.246;6.658;2023-08-06T12:36:48;20.30;99.90
51841;DHT22;37888;53.246;6.658;2023-08-06T12:39:14;20.40;99.90
51841;DHT22;37888;53.246;6.658;2023-08-06T12:41:40;20.30;99.90
51841;DHT22;37888;53.246;6.658;2023-08-06T12:44:06;20.40;99.90
51841;DHT22;37888;53.246;6.658;2023-08-06T12:46:31;20.40;99.90
51841;DHT22;37888;53.246;6.658;2023-08-06T12:48:57;20.40;99.90
51841;DHT22;37888;53.246;6.658;2023-08-06T12:51:24;20.30;99.90
51841;DHT22;37888;53.246;6.658;2023-08-06T12:53:50;20.30;99.90
51841;DHT22;37888;53.246;6.658;2023-08-06T12:56:16;20.30;99.90
51841;DHT22;37888;53.246;6.658;2023-08-06T12:58:41;20.30;99.90
51841;DHT22;37888;53.246;6.658;2023-08-06T13:01:08;20.30;99.90
51841;DHT22;37888;53.246;6.658;2023-08-06T13:03:33;20.20;99.90
51841;DHT22;37888;53.246;6.658;2023-08-06T13:05:59;20.10;99.90
51841;DHT22;37888;53.246;6.658;2023-08-06T13:08:25;20.00;99.90
51841;DHT22;37888;53.246;6.658;2023-08-06T13:10:50;20.00;99.90
51841;DHT22;37888;53.246;6.658;2023-08-06T13:13:16;20.10;99.90
51841;DHT22;37888;53.246;6.658;2023-08-06T13:15:42;19.90;99.90
51841;DHT22;37888;53.246;6.658;2023-08-06T13:18:08;19.90;99.90
51841;DHT22;37888;53.246;6.658;2023-08-06T13:20:33;19.90;99.90
51841;DHT22;37888;53.246;6.658;2023-08-06T13:22:59;19.90;99.90
51841;DHT22;37888;53.246;6.658;2023-08-06T13:25:27;19.90;99.90
51841;DHT22;37888;53.246;6.658;2023-08-06T13:27:54;20.00;99.90
51841;DHT22;37888;53.246;6.658;2023-08-06T13:30:20;20.00;99.90
51841;DHT22;37888;53.246;6.658;2023-08-06T13:32:46;19.90;99.90
51841;DHT22;37888;53.246;6.658;2023-08-06T13:35:12;19.90;99.90
51841;DHT22;37888;53.246;6.658;2023-08-06T13:37:38;20.00;99.90
51841;DHT22;37888;53.246;6.658;2023-08-06T13:40:04;20.00;99.90
51841;DHT22;37888;53.246;6.658;2023-08-06T13:42:30;19.90;99.90
51841;DHT22;37888;53.246;6.658;2023-08-06T13:44:57;20.00;99.90
51841;DHT22;37888;53.246;6.658;2023-08-06T13:47:28;19.90;99.90
51841;DHT22;37888;53.246;6.658;2023-08-06T13:49:53;19.80;99.90
51841;DHT22;37888;53.246;6.658;2023-08-06T13:52:20;19.80;99.90
51841;DHT22;37888;53.246;6.658;2023-08-06T13:54:46;19.80;99.90
51841;DHT22;37888;53.246;6.658;2023-08-06T13:57:11;19.60;99.90
51841;DHT22;37888;53.246;6.658;2023-08-06T13:59:38;19.60;99.90
51841;DHT22;37888;53.246;6.658;2023-08-06T14:02:04;19.50;99.90
51841;DHT22;37888;53.246;6.658;2023-08-06T14:04:29;19.50;99.90
51841;DHT22;37888;53.246;6.658;2023-08-06T14:06:56;19.50;99.90
51841;DHT22;37888;53.246;6.658;2023-08-06T14:09:22;19.50;99.90
51841;DHT22;37888;53.246;6.658;2023-08-06T14:11:48;19.60;99.90
51841;DHT22;37888;53.246;6.658;2023-08-06T14:14:13;19.60;99.90
51841;DHT22;37888;53.246;6.658;2023-08-06T14:16:39;19.60;99.90
51841;DHT22;37888;53.246;6.658;2023-08-06T14:19:05;19.60;99.90
51841;DHT22;37888;53.246;6.658;2023-08-06T14:21:31;19.60;99.90
51841;DHT22;37888;53.246;6.658;2023-08-06T14:23:56;19.60;99.90
51841;DHT22;37888;53.246;6.658;2023-08-06T14:26:22;19.70;99.90
51841;DHT22;37888;53.246;6.658;2023-08-06T14:28:48;19.70;99.90
51841;DHT22;37888;53.246;6.658;2023-08-06T14:31:14;19.60;99.90
51841;DHT22;37888;53.246;6.658;2023-08-06T14:33:39;19.60;99.90
51841;DHT22;37888;53.246;6.658;2023-08-06T14:36:05;19.50;99.90
51841;DHT22;37888;53.246;6.658;2023-08-06T14:38:31;19.40;99.90
51841;DHT22;37888;53.246;6.658;2023-08-06T14:40:57;19.30;99.90
51841;DHT22;37888;53.246;6.658;2023-08-06T14:43:22;19.30;99.90
51841;DHT22;37888;53.246;6.658;2023-08-06T14:45:48;19.30;99.90
51841;DHT22;37888;53.246;6.658;2023-08-06T14:48:14;19.30;99.90
51841;DHT22;37888;53.246;6.658;2023-08-06T14:50:40;19.40;99.90
51841;DHT22;37888;53.246;6.658;2023-08-06T14:53:06;19.50;99.90
51841;DHT22;37888;53.246;6.658;2023-08-06T14:55:33;19.60;99.90
51841;DHT22;37888;53.246;6.658;2023-08-06T14:58:01;19.60;99.90
51841;DHT22;37888;53.246;6.658;2023-08-06T15:00:26;19.60;99.90
51841;DHT22;37888;53.246;6.658;2023-08-06T15:02:52;19.60;99.90
51841;DHT22;37888;53.246;6.658;2023-08-06T15:05:18;19.70;99.90
51841;DHT22;37888;53.246;6.658;2023-08-06T15:07:44;19.60;99.90
51841;DHT22;37888;53.246;6.658;2023-08-06T15:10:09;19.60;99.90
51841;DHT22;37888;53.246;6.658;2023-08-06T15:12:35;19.60;99.90
51841;DHT22;37888;53.246;6.658;2023-08-06T15:15:01;19.50;99.90
51841;DHT22;37888;53.246;6.658;2023-08-06T15:17:27;19.50;99.90
51841;DHT22;37888;53.246;6.658;2023-08-06T15:19:57;19.50;99.90
51841;DHT22;37888;53.246;6.658;2023-08-06T15:22:24;19.40;99.90
51841;DHT22;37888;53.246;6.658;2023-08-06T15:24:50;19.40;99.90
51841;DHT22;37888;53.246;6.658;2023-08-06T15:27:15;19.40;99.90
51841;DHT22;37888;53.246;6.658;2023-08-06T15:29:42;19.30;99.90
51841;DHT22;37888;53.246;6.658;2023-08-06T15:32:09;19.30;99.90
51841;DHT22;37888;53.246;6.658;2023-08-06T15:34:35;19.20;99.90
51841;DHT22;37888;53.246;6.658;2023-08-06T15:37:00;19.10;99.90
51841;DHT22;37888;53.246;6.658;2023-08-06T15:39:26;19.10;99.90
51841;DHT22;37888;53.246;6.658;2023-08-06T15:41:52;19.00;99.90
51841;DHT22;37888;53.246;6.658;2023-08-06T15:44:18;19.00;99.90
51841;DHT22;37888;53.246;6.658;2023-08-06T15:46:43;18.90;99.90
51841;DHT22;37888;53.246;6.658;2023-08-06T15:49:09;18.90;99.90
51841;DHT22;37888;53.246;6.658;2023-08-06T15:51:35;18.90;99.90
51841;DHT22;37888;53.246;6.658;2023-08-06T15:54:01;18.90;99.90
51841;DHT22;37888;53.246;6.658;2023-08-06T15:56:27;18.90;99.90
51841;DHT22;37888;53.246;6.658;2023-08-06T15:58:52;18.90;99.90
51841;DHT22;37888;53.246;6.658;2023-08-06T16:01:19;18.90;99.90
51841;DHT22;37888;53.246;6.658;2023-08-06T16:03:44;18.90;99.90
51841;DHT22;37888;53.246;6.658;2023-08-06T16:06:10;18.90;99.90
51841;DHT22;37888;53.246;6.658;2023-08-06T16:08:36;18.90;99.90
51841;DHT22;37888;53.246;6.658;2023-08-06T16:11:03;18.90;99.90
51841;DHT22;37888;53.246;6.658;2023-08-06T16:13:30;19.00;99.90
51841;DHT22;37888;53.246;6.658;2023-08-06T16:15:56;19.00;99.90
51841;DHT22;37888;53.246;6.658;2023-08-06T16:18:22;19.00;99.90
51841;DHT22;37888;53.246;6.658;2023-08-06T16:20:48;19.00;99.90
51841;DHT22;37888;53.246;6.658;2023-08-06T16:23:13;18.90;99.90
51841;DHT22;37888;53.246;6.658;2023-08-06T16:25:57;18.90;99.90
51841;DHT22;37888;53.246;6.658;2023-08-06T17:11:06;18.40;99.90
51841;DHT22;37888;53.246;6.658;2023-08-06T17:13:41;18.30;99.90
51841;DHT22;37888;53.246;6.658;2023-08-06T17:16:22;18.30;99.90
51841;DHT22;37888;53.246;6.658;2023-08-06T17:19:18;18.30;99.90
51841;DHT22;37888;53.246;6.658;2023-08-06T17:21:49;17.80;99.90
51841;DHT22;37888;53.246;6.658;2023-08-06T17:34:57;17.80;99.90
51841;DHT22;37888;53.246;6.658;2023-08-06T17:44:45;17.40;99.90
51841;DHT22;37888;53.246;6.658;2023-08-06T17:51:04;16.80;99.90
51841;DHT22;37888;53.246;6.658;2023-08-06T17:57:17;17.10;99.90
51841;DHT22;37888;53.246;6.658;2023-08-06T17:59:43;17.00;99.90
51841;DHT22;37888;53.246;6.658;2023-08-06T18:02:19;17.00;99.90
51841;DHT22;37888;53.246;6.658;2023-08-06T18:09:14;16.70;99.90
51841;DHT22;37888;53.246;6.658;2023-08-06T18:11:52;16.90;99.90
51841;DHT22;37888;53.246;6.658;2023-08-06T18:18:39;17.00;99.90
51841;DHT22;37888;53.246;6.658;2023-08-06T18:21:11;16.90;99.90
51841;DHT22;37888;53.246;6.658;2023-08-06T18:31:36;16.40;99.90
51841;DHT22;37888;53.246;6.658;2023-08-06T18:35:08;16.70;99.90
51841;DHT22;37888;53.246;6.658;2023-08-06T18:38:28;16.70;99.90